Time;durP1;ratioP1;P1;durP2;ratioP2;P2;SDS_P1;SDS_P2;PMS_P1;PMS_P2;Temp;Humidity;BMP_temperature;BMP_pressure;BME280_temperature;BME280_humidity;BME280_pressure;Samples;Min_cycle;Max_cycle;Signal;HPM_P1;HPM_P2
2024/01/12 07:33:07;;;;;;;26.27;13.63;;;;;;;2.61;67.41;102146.97;4401511;27;20236;-66
2024/01/12 07:35:48;;;;;;;27.83;14.03;;;;;;;2.67;67.60;102142.41;4806139;29;20299;-67
2024/01/12 07:38:18;;;;;;;26.03;13.27;;;;;;;2.70;67.41;102144.91;4807638;29;20225;-69
2024/01/12 07:40:52;;;;;;;32.13;13.57;;;;;;;2.74;67.16;102147.34;4807408;29;20301;-67
2024/01/12 07:43:30;;;;;;;28.03;13.67;;;;;;;2.75;67.34;102140.34;4807625;29;20295;-66
2024/01/12 07:46:02;;;;;;;27.73;13.63;;;;;;;2.77;67.53;102141.16;4808710;29;20209;-66
2024/01/12 07:48:33;;;;;;;24.33;13.23;;;;;;;2.80;67.30;102147.16;4808495;29;20219;-67
2024/01/12 07:51:09;;;;;;;27.87;13.93;;;;;;;2.78;67.40;102158.59;4809450;29;20208;-66
2024/01/12 07:53:43;;;;;;;26.30;13.67;;;;;;;2.77;67.46;102156.88;4808237;29;20900;-67
2024/01/12 07:56:14;;;;;;;31.93;14.80;;;;;;;2.76;67.68;102157.78;4809778;29;20289;-67
2024/01/12 07:58:43;;;;;;;28.97;12.83;;;;;;;2.78;67.75;102166.44;4806761;29;20232;-72
2024/01/12 08:01:25;;;;;;;31.80;14.10;;;;;;;2.80;67.88;102164.63;4805357;29;20233;-66
2024/01/12 08:03:55;;;;;;;26.73;12.67;;;;;;;2.79;67.70;102176.00;4810730;29;20217;-67
2024/01/12 08:06:24;;;;;;;30.40;14.33;;;;;;;2.78;67.76;102163.81;4811543;29;20217;-66
2024/01/12 08:08:55;;;;;;;26.33;13.93;;;;;;;2.77;67.93;102162.13;4808553;29;20221;-67
2024/01/12 08:11:24;;;;;;;29.63;14.03;;;;;;;2.77;67.93;102167.34;4808488;29;20245;-67
2024/01/12 08:14:07;;;;;;;29.17;13.97;;;;;;;2.78;67.98;102174.31;4807909;29;20635;-67
2024/01/12 08:16:36;;;;;;;26.77;14.07;;;;;;;2.84;67.82;102181.94;4808419;29;20241;-66
2024/01/12 08:19:06;;;;;;;27.53;14.23;;;;;;;2.90;67.24;102168.63;4807807;29;20686;-67
2024/01/12 08:21:35;;;;;;;31.27;15.03;;;;;;;2.90;67.46;102168.63;4809928;29;20214;-67
2024/01/12 08:24:18;;;;;;;23.57;12.90;;;;;;;2.91;67.48;102165.91;4806078;29;20244;-66
2024/01/12 08:26:47;;;;;;;24.80;12.83;;;;;;;2.91;67.68;102163.28;4809468;29;20962;-66
2024/01/12 08:29:16;;;;;;;32.10;14.83;;;;;;;2.91;67.43;102158.06;4808675;29;20222;-66
2024/01/12 08:31:44;;;;;;;29.73;13.27;;;;;;;2.93;67.52;102158.00;4807965;29;20232;-66
2024/01/12 08:34:14;;;;;;;30.83;14.80;;;;;;;2.91;67.45;102162.44;4808154;29;20222;-66
2024/01/12 08:36:43;;;;;;;28.20;14.60;;;;;;;2.91;67.75;102165.06;4808549;29;20221;-66
2024/01/12 08:39:11;;;;;;;29.43;14.60;;;;;;;2.94;67.48;102170.19;4807274;29;20210;-66
2024/01/12 08:41:40;;;;;;;29.27;14.03;;;;;;;3.00;67.35;102176.06;4807162;29;20636;-68
2024/01/12 08:44:08;;;;;;;27.33;14.20;;;;;;;3.01;67.20;102164.66;4807551;29;20219;-66
2024/01/12 08:46:36;;;;;;;33.77;15.83;;;;;;;3.05;67.06;102173.25;4809820;29;20210;-67
2024/01/12 08:49:05;;;;;;;34.00;15.37;;;;;;;3.04;67.19;102166.31;4811433;29;20216;-65
2024/01/12 08:51:35;;;;;;;30.40;14.87;;;;;;;3.02;67.40;102163.75;4809511;29;20238;-66
2024/01/12 08:54:04;;;;;;;29.87;14.83;;;;;;;3.01;67.74;102161.19;4810259;29;20239;-66
2024/01/12 08:56:35;;;;;;;34.93;15.97;;;;;;;2.96;68.10;102165.75;4811038;29;20233;-66
2024/01/12 08:59:03;;;;;;;27.67;14.87;;;;;;;2.97;67.90;102170.09;4810907;29;20295;-66
2024/01/12 09:01:31;;;;;;;29.93;15.37;;;;;;;2.98;67.95;102166.56;4810538;29;20228;-66
2024/01/12 09:04:01;;;;;;;29.67;15.40;;;;;;;2.97;67.90;102165.69;4809590;29;20214;-67
2024/01/12 09:06:30;;;;;;;29.13;14.77;;;;;;;2.96;67.81;102165.75;4811239;29;20201;-66
2024/01/12 09:09:00;;;;;;;30.17;15.07;;;;;;;2.98;67.89;102177.03;4810818;29;20300;-66
2024/01/12 09:11:28;;;;;;;35.23;15.00;;;;;;;2.99;67.78;102178.75;4810202;29;20714;-67
2024/01/12 09:13:56;;;;;;;32.30;15.07;;;;;;;3.01;67.79;102182.16;4811109;29;20707;-67
2024/01/12 09:16:25;;;;;;;33.97;16.03;;;;;;;3.00;67.95;102175.19;4809257;29;20216;-66
2024/01/12 09:18:53;;;;;;;32.23;15.47;;;;;;;3.05;67.32;102186.38;4809707;29;20217;-67
2024/01/12 09:21:21;;;;;;;30.50;16.03;;;;;;;3.08;67.38;102183.63;4809299;29;20220;-66
2024/01/12 09:23:49;;;;;;;31.10;14.80;;;;;;;3.12;67.63;102190.47;4809288;29;20329;-67
2024/01/12 09:26:19;;;;;;;35.83;15.73;;;;;;;3.10;67.70;102192.28;4809548;29;20223;-67
2024/01/12 09:28:47;;;;;;;32.07;15.90;;;;;;;3.06;67.83;102195.94;4810698;29;20216;-66
2024/01/12 09:31:18;;;;;;;29.47;15.17;;;;;;;3.04;68.26;102187.28;4807280;29;20235;-66
2024/01/12 09:33:46;;;;;;;26.50;14.87;;;;;;;3.05;68.15;102189.00;4809645;29;20319;-66
2024/01/12 09:36:15;;;;;;;34.13;15.07;;;;;;;3.10;67.87;102191.44;4809644;29;20288;-66
2024/01/12 09:38:44;;;;;;;34.33;16.67;;;;;;;3.15;67.41;102190.34;4808740;29;20236;-66
2024/01/12 09:41:12;;;;;;;29.40;14.87;;;;;;;3.14;67.55;102196.50;4807321;29;20211;-66
2024/01/12 09:43:45;;;;;;;33.53;16.77;;;;;;;3.14;67.86;102203.53;4810362;29;20221;-67
2024/01/12 09:46:18;;;;;;;35.90;17.40;;;;;;;3.12;67.67;102198.31;4808766;29;20233;-68
2024/01/12 09:48:46;;;;;;;35.67;16.30;;;;;;;3.12;68.00;102200.94;4807944;29;20222;-65
2024/01/12 09:51:17;;;;;;;32.30;15.57;;;;;;;3.11;68.14;102201.00;4809674;29;20277;-66
2024/01/12 09:53:45;;;;;;;36.20;16.27;;;;;;;3.10;68.43;102202.78;4810686;29;20669;-66
2024/01/12 09:56:14;;;;;;;26.23;13.80;;;;;;;3.01;67.70;102201.34;4809225;29;20639;-66
2024/01/12 09:58:43;;;;;;;25.10;13.53;;;;;;;2.90;67.43;102200.88;4809102;29;20229;-65
2024/01/12 10:01:14;;;;;;;26.57;12.47;;;;;;;2.70;67.50;102208.66;4809684;29;20297;-66
2024/01/12 10:03:44;;;;;;;24.63;12.63;;;;;;;2.54;67.54;102207.50;4810688;29;20671;-66
2024/01/12 10:06:12;;;;;;;24.83;12.27;;;;;;;2.33;68.54;102201.25;4808966;29;20213;-66
2024/01/12 10:08:41;;;;;;;23.37;11.33;;;;;;;2.05;69.86;102214.41;4809887;29;20295;-66
2024/01/12 10:11:10;;;;;;;25.37;12.30;;;;;;;1.89;70.54;102208.84;4808497;29;20656;-65
2024/01/12 10:13:38;;;;;;;25.57;12.53;;;;;;;1.95;70.69;102202.53;4808850;29;20356;-67
2024/01/12 10:16:08;;;;;;;23.87;12.93;;;;;;;1.92;70.65;102186.09;4810334;29;20245;-65
2024/01/12 10:18:36;;;;;;;23.60;12.10;;;;;;;1.95;70.67;102196.44;4807399;29;20217;-66
2024/01/12 10:21:05;;;;;;;24.07;11.70;;;;;;;1.95;70.62;102202.53;4809586;29;20299;-66
2024/01/12 10:23:34;;;;;;;24.77;12.70;;;;;;;2.04;70.63;102202.22;4806821;29;20915;-66
2024/01/12 10:26:04;;;;;;;26.80;13.10;;;;;;;2.06;70.81;102204.78;4810187;29;20220;-67
2024/01/12 10:28:33;;;;;;;32.03;13.77;;;;;;;2.06;71.04;102196.94;4808947;29;20646;-66
2024/01/12 10:31:15;;;;;;;28.37;13.40;;;;;;;2.03;70.92;102200.50;4810810;29;20230;-66
2024/01/12 10:33:46;;;;;;;26.83;12.70;;;;;;;2.16;70.61;102200.97;4807443;29;20282;-66
2024/01/12 10:36:30;;;;;;;23.40;12.43;;;;;;;2.27;70.16;102193.59;4807041;29;20671;-66
2024/01/12 10:39:11;;;;;;;25.67;12.67;;;;;;;2.34;69.76;102189.84;4810316;29;20619;-66
2024/01/12 10:41:42;;;;;;;24.83;12.17;;;;;;;2.24;69.85;102191.09;4810148;29;20212;-66
2024/01/12 10:44:14;;;;;;;25.93;13.33;;;;;;;2.23;69.96;102192.00;4808119;29;20311;-67
2024/01/12 10:46:47;;;;;;;24.90;10.77;;;;;;;2.37;69.68;102189.75;4809865;29;20221;-67
2024/01/12 10:49:18;;;;;;;27.03;13.47;;;;;;;2.33;69.39;102190.75;4808790;29;20760;-67
2024/01/12 10:51:59;;;;;;;27.37;12.30;;;;;;;2.36;69.56;102195.06;4808718;29;20677;-68
2024/01/12 10:54:34;;;;;;;27.70;13.67;;;;;;;2.36;69.84;102184.56;4810782;29;20221;-68
2024/01/12 10:57:03;;;;;;;28.30;13.23;;;;;;;2.38;69.98;102193.22;4807257;29;20212;-66
2024/01/12 10:59:32;;;;;;;26.83;13.07;;;;;;;2.43;70.14;102199.16;4808297;29;20212;-66
2024/01/12 11:02:07;;;;;;;28.37;13.07;;;;;;;2.41;70.25;102191.34;4810285;29;20295;-66
2024/01/12 11:04:36;;;;;;;26.83;12.40;;;;;;;2.44;70.15;102190.41;4807838;29;20218;-66
2024/01/12 11:07:13;;;;;;;26.53;13.27;;;;;;;2.43;70.48;102184.31;4806965;29;20350;-67
2024/01/12 11:09:54;;;;;;;24.53;12.67;;;;;;;2.50;70.33;102185.78;4808350;29;20216;-66
2024/01/12 11:12:32;;;;;;;28.77;14.10;;;;;;;2.45;70.49;102187.72;4806871;29;20288;-65
2024/01/12 11:15:02;;;;;;;30.40;13.30;;;;;;;2.57;70.79;102189.03;4805633;29;20229;-66
2024/01/12 11:17:36;;;;;;;27.60;13.83;;;;;;;2.63;71.08;102184.44;4807240;29;20240;-66
2024/01/12 11:20:12;;;;;;;27.30;13.03;;;;;;;2.61;70.81;102169.69;4809087;29;20300;-67
2024/01/12 11:22:48;;;;;;;33.13;14.30;;;;;;;2.54;71.38;102161.22;4809297;29;20723;-65
2024/01/12 11:25:19;;;;;;;31.90;14.33;;;;;;;2.58;71.17;102162.78;4807522;29;20234;-65
2024/01/12 11:27:49;;;;;;;29.80;14.30;;;;;;;2.63;71.15;102165.25;4805599;29;20685;-66
2024/01/12 11:30:22;;;;;;;29.47;14.33;;;;;;;2.65;71.20;102153.78;4807744;29;20219;-66
2024/01/12 11:33:04;;;;;;;31.20;14.43;;;;;;;2.61;71.28;102149.59;4808040;29;20236;-66
2024/01/12 11:35:33;;;;;;;28.83;14.17;;;;;;;2.62;71.12;102148.69;4809140;29;20249;-66
2024/01/12 11:38:08;;;;;;;31.30;14.07;;;;;;;2.68;71.07;102136.25;4809371;29;20215;-65
2024/01/12 11:40:40;;;;;;;30.53;13.87;;;;;;;2.76;70.95;102131.59;4808365;29;20286;-66
2024/01/12 11:43:16;;;;;;;31.63;15.03;;;;;;;2.83;71.25;102131.28;4807720;29;20217;-67
2024/01/12 11:45:44;;;;;;;30.57;14.83;;;;;;;2.84;71.34;102140.00;4808971;29;20644;-65
2024/01/12 11:48:16;;;;;;;31.10;15.00;;;;;;;2.85;71.61;102139.09;4808370;29;20216;-66
2024/01/12 11:50:44;;;;;;;24.83;13.40;;;;;;;2.88;71.73;102149.47;4810089;29;20588;-65
2024/01/12 11:53:13;;;;;;;29.27;14.60;;;;;;;2.92;71.30;102140.56;4806695;29;20748;-65
2024/01/12 11:55:42;;;;;;;28.40;14.70;;;;;;;2.94;71.73;102141.38;4805399;29;20272;-66
2024/01/12 11:58:12;;;;;;;30.03;14.53;;;;;;;2.93;72.05;102143.13;4809465;29;20221;-66
2024/01/12 12:00:40;;;;;;;32.00;15.63;;;;;;;2.95;72.19;102129.97;4805047;29;20213;-70
2024/01/12 12:03:09;;;;;;;34.70;16.37;;;;;;;2.96;72.16;102126.44;4806831;29;20217;-67
2024/01/12 12:05:41;;;;;;;31.07;14.27;;;;;;;2.97;71.96;102122.91;4805959;29;21078;-65
2024/01/12 12:08:10;;;;;;;33.03;16.13;;;;;;;2.98;71.86;102128.09;4810191;29;20217;-65
2024/01/12 12:10:41;;;;;;;34.90;15.77;;;;;;;3.01;72.08;102117.47;4809031;29;20218;-65
2024/01/12 12:13:15;;;;;;;34.23;15.43;;;;;;;3.01;72.29;102109.63;4810061;29;20217;-66
2024/01/12 12:15:44;;;;;;;29.90;14.53;;;;;;;3.03;72.40;102096.47;4807720;29;20238;-65
2024/01/12 12:18:16;;;;;;;30.20;14.87;;;;;;;3.04;72.67;102098.16;4808043;29;20238;-65
2024/01/12 12:20:46;;;;;;;30.47;14.87;;;;;;;3.06;72.65;102100.72;4809042;29;20661;-66
2024/01/12 12:23:14;;;;;;;30.23;15.47;;;;;;;3.08;72.39;102093.66;4811655;29;20240;-66
2024/01/12 12:25:44;;;;;;;31.77;15.50;;;;;;;3.09;72.37;102096.19;4810914;29;20706;-67
2024/01/12 12:28:13;;;;;;;30.37;14.50;;;;;;;3.12;72.36;102085.59;4812502;29;20259;-66
2024/01/12 12:30:42;;;;;;;26.20;14.10;;;;;;;3.17;71.87;102094.13;4808215;29;20216;-66
2024/01/12 12:33:11;;;;;;;30.63;15.13;;;;;;;3.23;71.60;102083.41;4813083;29;20310;-64
2024/01/12 12:35:40;;;;;;;28.83;14.30;;;;;;;3.24;71.44;102069.41;4810714;29;20243;-64
2024/01/12 12:38:10;;;;;;;30.87;14.33;;;;;;;3.25;71.64;102084.22;4812364;29;20664;-65
2024/01/12 12:40:38;;;;;;;34.33;15.07;;;;;;;3.21;71.88;102069.50;4811927;29;20225;-64
2024/01/12 12:43:07;;;;;;;34.73;15.90;;;;;;;3.20;72.24;102067.78;4810915;29;20219;-64
2024/01/12 12:45:34;;;;;;;28.83;14.37;;;;;;;3.18;72.43;102067.00;4811137;29;20215;-66
2024/01/12 12:48:04;;;;;;;30.73;14.50;;;;;;;3.22;72.32;102075.59;4809127;29;20225;-65
2024/01/12 12:50:37;;;;;;;30.37;13.93;;;;;;;3.25;72.23;102070.25;4810274;29;20733;-66
2024/01/12 12:53:15;;;;;;;29.43;14.77;;;;;;;3.29;71.64;102063.94;4809242;29;20715;-66
2024/01/12 12:55:50;;;;;;;29.27;14.00;;;;;;;3.27;71.72;102064.00;4810771;29;20253;-66
2024/01/12 12:58:24;;;;;;;29.93;14.73;;;;;;;3.26;72.11;102056.19;4808501;29;20252;-65
2024/01/12 13:00:59;;;;;;;28.30;13.67;;;;;;;3.24;72.19;102045.81;4807240;29;20232;-66
2024/01/12 13:03:48;;;;;;;27.83;14.30;;;;;;;3.23;72.54;102051.09;4764039;29;20300;-66
2024/01/12 13:06:33;;;;;;;30.77;14.37;;;;;;;3.24;72.48;102043.19;4808545;29;21243;-65
2024/01/12 13:09:26;;;;;;;31.83;15.27;;;;;;;3.24;72.38;102052.81;4810026;29;20269;-66
2024/01/12 13:11:55;;;;;;;27.43;14.27;;;;;;;3.25;72.23;102044.88;4811484;29;20226;-66
2024/01/12 13:14:24;;;;;;;31.60;15.63;;;;;;;3.25;72.11;102044.03;4810160;29;20214;-63
2024/01/12 13:16:52;;;;;;;34.43;17.50;;;;;;;3.23;72.44;102041.47;4810490;29;20313;-65
2024/01/12 13:19:21;;;;;;;33.23;15.43;;;;;;;3.22;72.60;102049.38;4812972;29;20301;-67
2024/01/12 13:21:54;;;;;;;33.80;16.97;;;;;;;3.20;72.95;102053.84;4809489;29;20294;-65
2024/01/12 13:24:24;;;;;;;33.70;16.57;;;;;;;3.19;72.99;102049.50;4810604;29;20261;-65
2024/01/12 13:26:52;;;;;;;39.27;16.53;;;;;;;3.18;73.16;102050.41;4810013;29;20304;-66
2024/01/12 13:29:21;;;;;;;34.70;16.83;;;;;;;3.17;73.15;102044.31;4808842;29;20218;-65
2024/01/12 13:31:50;;;;;;;30.50;15.40;;;;;;;3.18;73.13;102048.66;4807764;29;20664;-66
2024/01/12 13:34:18;;;;;;;32.07;15.23;;;;;;;3.16;73.31;102040.03;4809392;29;20240;-65
2024/01/12 13:36:47;;;;;;;29.47;14.83;;;;;;;3.15;73.44;102037.44;4806970;29;20696;-66
2024/01/12 13:39:16;;;;;;;29.70;14.03;;;;;;;3.18;73.65;102042.56;4810361;29;21002;-66
2024/01/12 13:41:46;;;;;;;32.60;15.73;;;;;;;3.16;73.44;102045.25;4809520;29;20253;-65
2024/01/12 13:44:17;;;;;;;31.83;14.77;;;;;;;3.14;73.64;102035.75;4809302;29;20218;-65
2024/01/12 13:46:45;;;;;;;31.67;17.03;;;;;;;3.15;73.63;102043.56;4811017;29;20665;-66
2024/01/12 13:49:16;;;;;;;31.17;15.07;;;;;;;3.14;73.75;102035.75;4808143;29;20238;-66
2024/01/12 13:51:44;;;;;;;34.10;15.97;;;;;;;3.17;73.75;102041.69;4809156;29;20246;-66
2024/01/12 13:54:26;;;;;;;27.60;12.63;;;;;;;3.16;73.65;102041.78;4808528;29;20591;-67
2024/01/12 13:56:56;;;;;;;21.20;9.97;;;;;;;3.16;73.42;102032.16;4810671;29;20245;-65
2024/01/12 13:59:25;;;;;;;21.03;9.93;;;;;;;3.17;73.52;102030.34;4808382;29;20210;-65
2024/01/12 14:01:54;;;;;;;19.47;10.00;;;;;;;3.17;73.57;102031.22;4809365;29;20228;-66
2024/01/12 14:04:23;;;;;;;17.83;9.53;;;;;;;3.19;73.56;102021.53;4813078;29;20223;-65
2024/01/12 14:06:52;;;;;;;18.03;9.43;;;;;;;3.24;73.28;102027.44;4809648;29;20899;-66
2024/01/12 14:09:21;;;;;;;17.60;8.70;;;;;;;3.23;73.23;102030.13;4807107;29;20219;-66
2024/01/12 14:11:49;;;;;;;15.17;8.07;;;;;;;3.27;72.96;102031.69;4809180;29;20221;-65
2024/01/12 14:14:19;;;;;;;19.03;8.97;;;;;;;3.29;72.70;102035.97;4810914;29;20219;-65
2024/01/12 14:16:47;;;;;;;17.97;8.27;;;;;;;3.31;72.59;102026.28;4809050;29;20244;-65
2024/01/12 14:19:15;;;;;;;15.00;7.90;;;;;;;3.32;72.61;102030.59;4811387;29;20720;-66
2024/01/12 14:21:44;;;;;;;16.90;7.07;;;;;;;3.30;72.47;102026.31;4807437;29;20304;-66
2024/01/12 14:24:12;;;;;;;17.60;8.20;;;;;;;3.32;72.37;102025.34;4806514;29;20731;-65
2024/01/12 14:26:41;;;;;;;15.93;7.47;;;;;;;3.35;71.71;102014.72;4807241;29;20304;-67
2024/01/12 14:29:09;;;;;;;12.43;6.60;;;;;;;3.39;71.08;102013.69;4809229;29;20230;-66
2024/01/12 14:31:39;;;;;;;14.97;6.87;;;;;;;3.37;70.59;102015.50;4808241;29;20221;-66
2024/01/12 14:34:07;;;;;;;25.53;12.60;;;;;;;3.38;70.62;102022.47;4809232;29;20277;-65
2024/01/12 14:36:36;;;;;;;30.47;14.57;;;;;;;3.34;71.11;102026.13;4808719;29;20248;-65
2024/01/12 14:39:04;;;;;;;33.40;16.20;;;;;;;3.28;72.09;102025.53;4810192;29;20297;-65
2024/01/12 14:41:32;;;;;;;24.83;11.53;;;;;;;3.26;72.26;102020.34;4807461;29;20311;-65
2024/01/12 14:44:00;;;;;;;20.03;10.40;;;;;;;3.28;72.12;102018.53;4808709;29;20603;-65
2024/01/12 14:46:28;;;;;;;19.63;8.87;;;;;;;3.28;71.69;102021.16;4805978;29;20213;-65
2024/01/12 14:48:59;;;;;;;17.70;8.50;;;;;;;3.26;71.36;102025.59;4808846;29;20228;-68
2024/01/12 14:51:27;;;;;;;14.50;7.50;;;;;;;3.26;71.25;102030.84;4809016;29;20222;-65
2024/01/12 14:53:56;;;;;;;12.90;6.87;;;;;;;3.27;71.05;102016.81;4809212;29;20214;-65
2024/01/12 14:56:24;;;;;;;13.77;7.17;;;;;;;3.27;70.82;102027.31;4807487;29;20242;-66
2024/01/12 14:58:53;;;;;;;15.57;6.40;;;;;;;3.29;70.47;102022.84;4808188;29;20224;-66
2024/01/12 15:01:22;;;;;;;14.83;6.93;;;;;;;3.30;70.39;102021.94;4807658;29;20503;-66
2024/01/12 15:03:52;;;;;;;13.20;6.23;;;;;;;3.28;70.34;102018.53;4809734;29;20340;-65
2024/01/12 15:06:35;;;;;;;13.13;5.60;;;;;;;3.33;70.13;102021.81;4806667;29;20215;-65
2024/01/12 15:09:05;;;;;;;11.73;5.97;;;;;;;3.27;69.71;102027.31;4807341;29;20215;-65
2024/01/12 15:11:33;;;;;;;13.67;6.53;;;;;;;3.27;69.73;102026.44;4808896;29;20208;-65
2024/01/12 15:14:01;;;;;;;14.10;6.43;;;;;;;3.26;69.86;102022.97;4808829;29;20542;-65
2024/01/12 15:16:31;;;;;;;12.67;6.73;;;;;;;3.25;69.89;102023.91;4807605;29;20715;-65
2024/01/12 15:18:59;;;;;;;13.97;6.47;;;;;;;3.26;69.90;102027.34;4809432;29;20217;-65
2024/01/12 15:21:28;;;;;;;14.63;7.33;;;;;;;3.29;69.70;102025.47;4808879;29;20312;-65
2024/01/12 15:23:57;;;;;;;15.47;7.90;;;;;;;3.28;69.41;102023.75;4810597;29;20704;-66
2024/01/12 15:26:26;;;;;;;21.23;7.50;;;;;;;3.26;69.70;102025.59;4810117;29;20218;-64
2024/01/12 15:28:54;;;;;;;15.17;7.57;;;;;;;3.29;69.55;102024.63;4811899;29;20223;-65
2024/01/12 15:31:22;;;;;;;14.63;7.40;;;;;;;3.25;69.43;102021.28;4806748;29;20224;-66
2024/01/12 15:33:50;;;;;;;13.87;7.27;;;;;;;3.23;69.36;102025.75;4809256;29;20235;-65
2024/01/12 15:36:19;;;;;;;15.80;7.77;;;;;;;3.23;69.29;102017.88;4807703;29;20330;-65
2024/01/12 15:38:47;;;;;;;13.40;7.03;;;;;;;3.24;69.35;102022.19;4808173;29;20218;-65
2024/01/12 15:41:17;;;;;;;15.67;7.43;;;;;;;3.25;69.20;102029.16;4806700;29;20248;-66
2024/01/12 15:43:45;;;;;;;12.87;6.57;;;;;;;3.22;69.42;102029.28;4807731;29;20222;-65
2024/01/12 15:46:14;;;;;;;11.97;6.53;;;;;;;3.21;69.37;102038.03;4808747;29;20210;-66
2024/01/12 15:48:43;;;;;;;12.53;6.70;;;;;;;3.18;68.95;102039.94;4807035;29;20218;-65
2024/01/12 15:51:14;;;;;;;12.63;6.20;;;;;;;3.18;68.90;102042.56;4809688;29;20225;-66
2024/01/12 15:53:46;;;;;;;12.00;6.50;;;;;;;3.18;69.00;102045.19;4806735;29;20960;-68
2024/01/12 15:56:21;;;;;;;12.60;6.90;;;;;;;3.16;68.87;102045.25;4807862;29;20242;-68
2024/01/12 15:58:51;;;;;;;15.20;8.53;;;;;;;3.17;68.78;102046.94;4811445;29;20255;-66
2024/01/12 16:01:27;;;;;;;18.03;8.53;;;;;;;3.18;68.81;102048.66;4813319;29;20689;-66
2024/01/12 16:03:56;;;;;;;14.30;7.27;;;;;;;3.20;68.52;102049.44;4812330;29;20319;-66
2024/01/12 16:06:25;;;;;;;15.80;7.77;;;;;;;3.17;68.51;102060.03;4813334;29;20221;-65
2024/01/12 16:08:59;;;;;;;15.70;8.40;;;;;;;3.19;68.30;102065.22;4814737;29;20205;-66
2024/01/12 16:11:31;;;;;;;18.17;8.80;;;;;;;3.18;68.03;102068.75;4813682;29;20232;-65
2024/01/12 16:14:05;;;;;;;15.00;7.60;;;;;;;3.17;68.07;102080.16;4814337;29;20210;-64
2024/01/12 16:16:35;;;;;;;18.17;9.37;;;;;;;3.17;67.83;102074.91;4813096;29;20245;-66
2024/01/12 16:19:07;;;;;;;18.47;8.97;;;;;;;3.15;67.95;102074.16;4815036;29;20224;-66
2024/01/12 16:21:55;;;;;;;17.33;9.53;;;;;;;3.11;68.07;102078.66;4811352;29;20221;-66
2024/01/12 16:24:27;;;;;;;17.70;9.33;;;;;;;3.11;68.29;102078.66;4811804;29;20779;-67
2024/01/12 16:26:59;;;;;;;20.70;9.77;;;;;;;3.10;68.14;102076.94;4811993;29;20209;-65
2024/01/12 16:29:34;;;;;;;20.90;9.80;;;;;;;3.06;68.42;102080.63;4812072;29;20210;-65
2024/01/12 16:32:08;;;;;;;21.20;11.03;;;;;;;3.05;68.50;102078.91;4813859;29;20218;-65
2024/01/12 16:34:38;;;;;;;22.97;9.87;;;;;;;3.06;68.48;102078.00;4811296;29;20234;-65
2024/01/12 16:37:17;;;;;;;22.70;10.73;;;;;;;3.01;68.63;102078.16;4811731;29;20313;-66
2024/01/12 16:40:20;;;;;;;22.80;9.57;;;;;;;3.02;68.67;102076.41;4791897;29;20280;-65
2024/01/12 16:43:01;;;;;;;23.40;10.50;;;;;;;2.99;68.72;102079.16;4808429;29;20224;-65
2024/01/12 16:46:06;;;;;;;;;;;;;;;;;;;;;
2024/01/12 16:48:57;;;;;;;20.90;9.90;;;;;;;3.02;68.80;102079.88;4800896;29;20217;-66
2024/01/12 16:51:34;;;;;;;23.93;10.93;;;;;;;3.07;68.60;102074.47;4811921;29;20274;-66
2024/01/12 16:54:32;;;;;;;25.50;10.13;;;;;;;3.06;68.63;102078.00;4810685;29;20220;-64
2024/01/12 16:57:04;;;;;;;21.57;10.33;;;;;;;3.06;68.53;102071.91;4811044;29;20218;-67
2024/01/12 16:59:56;;;;;;;22.00;10.23;;;;;;;3.03;68.59;102075.50;4810852;29;20226;-65
2024/01/12 17:02:40;;;;;;;21.07;10.47;;;;;;;3.05;68.53;102073.66;4811333;29;20219;-65
2024/01/12 17:05:22;;;;;;;22.63;11.20;;;;;;;3.10;68.79;102076.09;4811127;29;20218;-64
2024/01/12 17:07:53;;;;;;;22.53;11.13;;;;;;;3.09;68.49;102074.38;4810629;29;20331;-65
2024/01/12 17:10:31;;;;;;;24.90;10.43;;;;;;;3.08;68.77;102073.53;4813231;29;20652;-64
2024/01/12 17:13:06;;;;;;;22.50;10.90;;;;;;;3.05;68.94;102073.66;4814203;29;20209;-65
2024/01/12 17:15:45;;;;;;;21.70;11.73;;;;;;;3.05;68.80;102076.28;4815315;29;20329;-66
2024/01/12 17:18:23;;;;;;;23.80;11.00;;;;;;;3.07;68.62;102073.63;4815708;29;20241;-65
2024/01/12 17:21:05;;;;;;;21.07;10.87;;;;;;;3.10;68.60;102066.47;4812643;29;20229;-66
2024/01/12 17:23:36;;;;;;;21.13;10.00;;;;;;;3.09;68.72;102067.38;4812995;29;20234;-65
2024/01/12 17:26:12;;;;;;;22.77;11.10;;;;;;;3.08;68.44;102070.09;4812993;29;20253;-66
2024/01/12 17:28:49;;;;;;;26.97;10.53;;;;;;;3.08;68.18;102068.28;4813112;29;20229;-65
2024/01/12 17:31:25;;;;;;;20.73;10.30;;;;;;;3.09;68.04;102067.38;4810542;29;21078;-70
2024/01/12 17:34:02;;;;;;;20.00;9.40;;;;;;;3.08;68.16;102073.53;4811659;29;20225;-66
2024/01/12 17:36:47;;;;;;;24.13;10.27;;;;;;;3.07;68.02;102069.22;4810403;29;20594;-68
2024/01/12 17:39:17;;;;;;;20.63;9.93;;;;;;;3.07;67.92;102077.09;4809332;29;20713;-66
2024/01/12 17:41:48;;;;;;;22.77;10.23;;;;;;;3.12;67.66;102075.13;4812843;29;20282;-66
2024/01/12 17:44:19;;;;;;;21.57;10.40;;;;;;;3.10;67.52;102069.09;4809321;29;20240;-65
2024/01/12 17:46:49;;;;;;;21.10;10.47;;;;;;;3.08;67.75;102070.91;4809906;29;20778;-66
2024/01/12 17:49:23;;;;;;;20.30;9.33;;;;;;;3.08;67.71;102073.53;4812298;29;20267;-65
2024/01/12 17:51:55;;;;;;;23.63;10.10;;;;;;;3.10;67.76;102081.34;4812053;29;20278;-67
2024/01/12 17:54:27;;;;;;;20.33;10.67;;;;;;;3.08;67.70;102072.69;4811658;29;20741;-66
2024/01/12 18:00:01;;;;;;;27.57;12.37;;;;;;;3.12;67.32;102085.59;4798115;29;20228;-66
2024/01/12 18:02:38;;;;;;;21.63;10.93;;;;;;;3.13;67.27;102091.69;4807533;29;20278;-66
2024/01/12 18:05:17;;;;;;;19.80;10.23;;;;;;;3.14;67.29;102090.78;4810531;29;20213;-65
2024/01/12 18:08:05;;;;;;;24.33;12.10;;;;;;;3.14;67.39;102077.69;4811604;29;20704;-65
2024/01/12 18:10:47;;;;;;;21.63;10.70;;;;;;;3.11;67.65;102076.03;4810049;29;20214;-65
2024/01/12 18:13:29;;;;;;;25.17;11.70;;;;;;;3.11;67.63;102073.41;4810034;29;20212;-66
2024/01/12 18:16:07;;;;;;;29.20;12.43;;;;;;;3.09;67.55;102067.38;4807845;29;20213;-66
2024/01/12 18:18:42;;;;;;;22.13;10.67;;;;;;;3.09;67.47;102067.38;4808156;29;20247;-66
2024/01/12 18:21:18;;;;;;;25.23;11.30;;;;;;;3.08;67.78;102062.22;4810668;29;20218;-66
2024/01/12 18:23:53;;;;;;;22.70;11.60;;;;;;;3.02;68.10;102064.16;4809145;29;20798;-66
2024/01/12 18:26:41;;;;;;;27.37;12.77;;;;;;;3.02;68.18;102068.53;4807609;29;20229;-66
2024/01/12 18:29:10;;;;;;;29.00;13.23;;;;;;;3.00;68.18;102067.75;4808943;29;20567;-66
2024/01/12 18:31:48;;;;;;;23.40;11.17;;;;;;;3.01;68.37;102067.69;4809900;29;20227;-66
2024/01/12 18:34:24;;;;;;;24.80;12.30;;;;;;;3.01;68.34;102059.81;4807565;29;20306;-65
2024/01/12 18:37:00;;;;;;;27.57;13.30;;;;;;;3.02;68.40;102048.41;4810445;29;20321;-65
2024/01/12 18:39:35;;;;;;;27.43;12.07;;;;;;;3.03;68.36;102042.28;4809593;29;20245;-67
2024/01/12 18:42:12;;;;;;;25.90;12.10;;;;;;;3.05;68.53;102036.97;4808405;29;20393;-65
2024/01/12 18:45:35;;;;;;;;;;;;;;;;;;;;;
2024/01/12 18:48:22;;;;;;;24.73;11.63;;;;;;;3.11;68.06;102055.06;4809935;29;20228;-65
2024/01/12 18:51:07;;;;;;;29.10;11.43;;;;;;;3.09;68.03;102049.03;4804746;29;20751;-67
2024/01/12 18:53:41;;;;;;;22.30;11.03;;;;;;;3.13;67.80;102047.13;4809907;29;20217;-65
2024/01/12 18:56:13;;;;;;;25.20;12.67;;;;;;;3.13;67.80;102045.38;4809195;29;20217;-65
2024/01/12 18:58:45;;;;;;;23.67;10.87;;;;;;;3.13;67.50;102037.50;4811117;29;20240;-65
2024/01/12 19:01:25;;;;;;;23.97;11.80;;;;;;;3.12;67.64;102038.41;4809589;29;20240;-65
2024/01/12 19:04:07;;;;;;;23.40;11.23;;;;;;;3.08;67.71;102036.81;4800152;29;20213;-64
2024/01/12 19:06:41;;;;;;;25.30;11.17;;;;;;;3.05;67.94;102042.22;4808681;29;20213;-68
2024/01/12 19:09:16;;;;;;;25.93;12.10;;;;;;;3.02;68.10;102040.56;4809860;29;20777;-66
2024/01/12 19:11:48;;;;;;;25.03;11.60;;;;;;;3.05;68.12;102043.97;4808345;29;20222;-65
2024/01/12 19:14:24;;;;;;;26.83;12.63;;;;;;;3.00;68.03;102044.16;4806377;29;20225;-65
2024/01/12 19:16:53;;;;;;;24.13;12.20;;;;;;;2.98;68.10;102052.09;4807626;29;20222;-66
2024/01/12 19:19:22;;;;;;;26.40;11.97;;;;;;;2.97;68.32;102062.63;4806985;29;20241;-65
2024/01/12 19:22:08;;;;;;;24.60;12.27;;;;;;;2.98;68.19;102059.09;4809486;29;20223;-66